Time;durP1;ratioP1;P1;durP2;ratioP2;P2;SDS_P1;SDS_P2;PMS_P1;PMS_P2;Temp;Humidity;BMP_temperature;BMP_pressure;BME280_temperature;BME280_humidity;BME280_pressure;Samples;Min_cycle;Max_cycle;Signal;HPM_P1;HPM_P2
2023/08/15 00:01:11;;;;;;;19.58;15.48;;;;;;;;;;8100603;29;20063;-89
2023/08/15 00:05:15;;;;;;;21.23;16.90;;;;;;;;;;8106323;29;20483;-90
2023/08/15 00:09:18;;;;;;;24.10;17.23;;;;;;;;;;8105912;29;20485;-90
2023/08/15 00:13:21;;;;;;;26.42;17.85;;;;;;;;;;8105992;29;20061;-88
2023/08/15 00:17:24;;;;;;;24.20;16.23;;;;;;;;;;8105692;29;20052;-90
2023/08/15 00:21:28;;;;;;;23.30;17.48;;;;;;;;;;8105928;29;20088;-91
2023/08/15 00:25:32;;;;;;;24.48;17.63;;;;;;;;;;8105813;29;20185;-89
2023/08/15 00:29:35;;;;;;;24.70;16.98;;;;;;;;;;8105605;29;20561;-90
2023/08/15 00:33:37;;;;;;;23.55;17.30;;;;;;;;;;8105710;29;20048;-89
2023/08/15 00:37:42;;;;;;;25.65;18.58;;;;;;;;;;8105619;29;20077;-91
2023/08/15 00:41:45;;;;;;;25.65;18.20;;;;;;;;;;8105608;29;20107;-89
2023/08/15 00:45:48;;;;;;;25.52;18.02;;;;;;;;;;8105762;29;20056;-90
2023/08/15 00:49:53;;;;;;;25.17;18.15;;;;;;;;;;8088414;29;20053;-89
2023/08/15 00:53:58;;;;;;;21.67;16.98;;;;;;;;;;8068043;29;20065;-89
2023/08/15 00:58:01;;;;;;;21.52;15.98;;;;;;;;;;8105223;29;20102;-89
2023/08/15 01:02:04;;;;;;;23.73;16.17;;;;;;;;;;8105109;29;20165;-90
2023/08/15 01:06:07;;;;;;;21.70;16.25;;;;;;;;;;8099076;29;20056;-90
2023/08/15 01:10:12;;;;;;;21.60;16.92;;;;;;;;;;8111338;29;20132;-90
2023/08/15 01:14:20;;;;;;;22.13;16.60;;;;;;;;;;8111092;29;20135;-90
2023/08/15 01:18:28;;;;;;;24.45;17.30;;;;;;;;;;8093882;29;20057;-89
2023/08/15 01:22:33;;;;;;;22.58;17.58;;;;;;;;;;8084421;29;20430;-90
2023/08/15 01:26:37;;;;;;;24.02;18.02;;;;;;;;;;8104887;29;20107;-90
2023/08/15 01:30:45;;;;;;;28.58;18.33;;;;;;;;;;8098078;29;20143;-89
2023/08/15 01:34:53;;;;;;;27.02;20.27;;;;;;;;;;8110602;29;20083;-90
2023/08/15 01:39:00;;;;;;;28.45;18.92;;;;;;;;;;8110528;29;20131;-90
2023/08/15 01:43:08;;;;;;;30.38;18.60;;;;;;;;;;8110126;29;20127;-90
2023/08/15 01:47:12;;;;;;;27.08;17.05;;;;;;;;;;8087514;29;20143;-90
2023/08/15 01:51:15;;;;;;;22.20;17.85;;;;;;;;;;8110082;29;20520;-89
2023/08/15 01:55:18;;;;;;;30.90;18.95;;;;;;;;;;8110049;29;20061;-89
2023/08/15 01:59:23;;;;;;;26.70;19.75;;;;;;;;;;8109740;29;20052;-89
2023/08/15 02:03:26;;;;;;;27.35;19.98;;;;;;;;;;8109853;29;20104;-90
2023/08/15 02:07:29;;;;;;;24.70;17.63;;;;;;;;;;8109311;29;20497;-90
2023/08/15 02:11:32;;;;;;;25.27;19.00;;;;;;;;;;8108588;29;20056;-89
2023/08/15 02:15:37;;;;;;;27.13;19.70;;;;;;;;;;8080766;29;20505;-89
2023/08/15 02:19:41;;;;;;;24.02;19.02;;;;;;;;;;8099850;29;20144;-90
2023/08/15 02:23:44;;;;;;;27.77;18.50;;;;;;;;;;8107088;29;20135;-90
2023/08/15 02:27:47;;;;;;;26.75;18.42;;;;;;;;;;8108833;29;20048;-90
2023/08/15 02:31:52;;;;;;;26.67;18.95;;;;;;;;;;8109052;29;20057;-90
2023/08/15 02:35:55;;;;;;;26.17;18.15;;;;;;;;;;8101019;29;20057;-92
2023/08/15 02:39:58;;;;;;;32.25;18.23;;;;;;;;;;8100700;29;20505;-90
2023/08/15 02:44:01;;;;;;;31.10;19.50;;;;;;;;;;8100593;29;20068;-91
2023/08/15 02:48:06;;;;;;;26.65;18.60;;;;;;;;;;8096790;29;20532;-90
2023/08/15 02:52:10;;;;;;;25.30;18.45;;;;;;;;;;8111238;29;20507;-90
2023/08/15 02:56:13;;;;;;;27.20;18.60;;;;;;;;;;8109650;29;20087;-90
2023/08/15 03:00:17;;;;;;;31.30;20.35;;;;;;;;;;8109961;29;20551;-90
2023/08/15 03:04:21;;;;;;;24.60;18.25;;;;;;;;;;8091803;29;20112;-91
2023/08/15 03:08:24;;;;;;;22.10;17.38;;;;;;;;;;8089450;29;20136;-90
2023/08/15 03:12:28;;;;;;;27.10;19.23;;;;;;;;;;8105857;29;20386;-91
2023/08/15 03:16:32;;;;;;;30.67;19.63;;;;;;;;;;8108137;29;20080;-90
2023/08/15 03:20:36;;;;;;;27.55;19.23;;;;;;;;;;8107833;29;20128;-91
2023/08/15 03:24:39;;;;;;;27.80;19.75;;;;;;;;;;8108027;29;20436;-91
2023/08/15 03:28:42;;;;;;;26.63;20.00;;;;;;;;;;8102586;29;20069;-90
2023/08/15 03:32:45;;;;;;;27.95;18.35;;;;;;;;;;8089833;29;20869;-91
2023/08/15 03:36:49;;;;;;;28.73;19.90;;;;;;;;;;8106855;29;20139;-90
2023/08/15 03:41:02;;;;;;;26.73;18.38;;;;;;;;;;8095066;29;20055;-91
2023/08/15 03:45:06;;;;;;;22.77;17.25;;;;;;;;;;8095435;29;20063;-91
2023/08/15 03:49:09;;;;;;;30.67;20.10;;;;;;;;;;8107647;29;20148;-91
2023/08/15 03:53:13;;;;;;;26.52;19.63;;;;;;;;;;8095070;29;20159;-90
2023/08/15 03:57:16;;;;;;;31.05;23.23;;;;;;;;;;8107492;29;20116;-91
2023/08/15 04:01:19;;;;;;;28.58;19.25;;;;;;;;;;8080152;29;20519;-88
2023/08/15 04:05:23;;;;;;;27.52;18.55;;;;;;;;;;8106891;29;20528;-90
2023/08/15 04:25:27;;;;;;;19.88;15.77;;;;;;;;;;8094245;29;20473;-89
2023/08/15 04:29:30;;;;;;;20.92;15.45;;;;;;;;;;8095878;29;20184;-90
2023/08/15 04:33:33;;;;;;;27.98;20.48;;;;;;;;;;8101076;29;20061;-91
2023/08/15 04:37:36;;;;;;;44.80;27.42;;;;;;;;;;8093037;29;20084;-90
2023/08/15 04:41:41;;;;;;;35.78;24.25;;;;;;;;;;8111293;29;20151;-88
2023/08/15 04:45:44;;;;;;;27.30;19.77;;;;;;;;;;8096730;29;20064;-91
2023/08/15 04:49:47;;;;;;;20.38;15.02;;;;;;;;;;8112743;29;20048;-91
2023/08/15 05:09:40;;;;;;;14.18;12.68;;;;;;;;;;8084919;29;19955;-93
2023/08/15 05:13:44;;;;;;;30.88;22.73;;;;;;;;;;8089587;29;20482;-93
2023/08/15 05:17:48;;;;;;;20.83;17.17;;;;;;;;;;8099255;29;20128;-92
2023/08/15 05:21:51;;;;;;;13.85;10.45;;;;;;;;;;8091292;29;20049;-92
2023/08/15 05:25:55;;;;;;;7.60;6.38;;;;;;;;;;8092915;29;20057;-90
2023/08/15 05:29:58;;;;;;;8.70;6.63;;;;;;;;;;8102927;29;20147;-90
2023/08/15 05:34:01;;;;;;;11.57;6.53;;;;;;;;;;8111339;29;20143;-90
2023/08/15 05:38:04;;;;;;;12.43;8.07;;;;;;;;;;8098305;29;20113;-90
2023/08/15 05:42:10;;;;;;;7.40;5.60;;;;;;;;;;8110751;29;20147;-91
2023/08/15 05:46:13;;;;;;;8.05;5.68;;;;;;;;;;8110589;29;20139;-90
2023/08/15 05:50:16;;;;;;;8.60;5.75;;;;;;;;;;8110748;29;20052;-90
2023/08/15 05:54:19;;;;;;;7.70;5.03;;;;;;;;;;8110483;29;20072;-90
2023/08/15 05:58:24;;;;;;;10.85;6.25;;;;;;;;;;8108515;29;20056;-92
2023/08/15 06:02:27;;;;;;;9.38;5.88;;;;;;;;;;8093922;29;20557;-91
2023/08/15 06:06:31;;;;;;;6.35;5.45;;;;;;;;;;8091519;29;20057;-92
2023/08/15 06:10:39;;;;;;;6.72;5.47;;;;;;;;;;8097529;29;20082;-92
2023/08/15 06:14:45;;;;;;;10.43;8.25;;;;;;;;;;8069361;29;20629;-91
2023/08/15 06:18:48;;;;;;;6.55;5.47;;;;;;;;;;8092020;29;20064;-89
2023/08/15 06:22:52;;;;;;;10.73;6.18;;;;;;;;;;8074689;29;20073;-90
2023/08/15 06:26:55;;;;;;;7.78;5.10;;;;;;;;;;8078483;29;20056;-89
2023/08/15 06:30:59;;;;;;;11.57;6.53;;;;;;;;;;8106324;29;20115;-90
2023/08/15 06:35:05;;;;;;;8.43;5.25;;;;;;;;;;8096180;29;20124;-90
2023/08/15 06:39:08;;;;;;;6.25;5.63;;;;;;;;;;8108249;29;20056;-88
2023/08/15 06:43:12;;;;;;;9.32;5.13;;;;;;;;;;8108866;29;20443;-88
2023/08/15 06:47:16;;;;;;;8.30;4.50;;;;;;;;;;8090101;29;20059;-88
2023/08/15 06:51:19;;;;;;;8.00;4.57;;;;;;;;;;8108041;29;20088;-88
2023/08/15 06:55:22;;;;;;;7.75;4.47;;;;;;;;;;8086502;29;20124;-88
2023/08/15 06:59:25;;;;;;;6.22;4.13;;;;;;;;;;8099491;29;20484;-88
2023/08/15 07:03:32;;;;;;;8.98;4.63;;;;;;;;;;8104253;29;20060;-88
2023/08/15 07:07:35;;;;;;;6.07;3.85;;;;;;;;;;8101053;29;20088;-90
2023/08/15 07:11:38;;;;;;;4.97;3.97;;;;;;;;;;8085756;29;20053;-89
2023/08/15 07:15:41;;;;;;;9.05;3.85;;;;;;;;;;8106454;29;20762;-89
2023/08/15 07:19:45;;;;;;;4.20;3.22;;;;;;;;;;8095337;29;20051;-90
2023/08/15 07:23:51;;;;;;;5.07;3.13;;;;;;;;;;8086700;29;20053;-90
2023/08/15 07:27:54;;;;;;;4.25;3.10;;;;;;;;;;8084441;29;20124;-91
2023/08/15 07:31:57;;;;;;;4.10;3.10;;;;;;;;;;8088714;29;20061;-89
2023/08/15 07:36:01;;;;;;;6.45;3.50;;;;;;;;;;8094657;29;20111;-87
2023/08/15 07:40:09;;;;;;;5.85;3.50;;;;;;;;;;8089186;29;20144;-89
2023/08/15 07:44:13;;;;;;;;;;;;;;;;;;8084656;29;20068;-88
2023/08/15 07:52:54;;;;;;;6.15;3.25;;;;;;;;;;8205336;23;20059;-90
2023/08/15 07:56:57;;;;;;;5.32;3.10;;;;;;;;;;8106597;29;20091;-90
2023/08/15 08:01:01;;;;;;;4.63;3.38;;;;;;;;;;8105881;29;20060;-90
2023/08/15 08:05:06;;;;;;;5.05;2.88;;;;;;;;;;8084136;29;20355;-89
2023/08/15 08:09:10;;;;;;;6.35;2.90;;;;;;;;;;8105531;29;20072;-89
2023/08/15 08:13:16;;;;;;;6.25;3.30;;;;;;;;;;8083698;29;20052;-89
2023/08/15 08:17:19;;;;;;;7.15;3.17;;;;;;;;;;8105846;29;20057;-90
2023/08/15 08:21:22;;;;;;;5.53;3.17;;;;;;;;;;8105802;29;20066;-89
2023/08/15 08:25:28;;;;;;;5.07;2.80;;;;;;;;;;8090936;29;20487;-89
2023/08/15 08:29:31;;;;;;;3.88;2.50;;;;;;;;;;8105527;29;20083;-89
2023/08/15 08:33:34;;;;;;;12.00;2.67;;;;;;;;;;8105570;29;20144;-89
2023/08/15 08:37:37;;;;;;;4.45;2.70;;;;;;;;;;8105379;29;20136;-89
2023/08/15 08:41:41;;;;;;;3.67;2.65;;;;;;;;;;8078132;29;20486;-90
2023/08/15 08:45:53;;;;;;;7.90;3.05;;;;;;;;;;8075849;29;20065;-90
2023/08/15 08:50:01;;;;;;;4.82;2.58;;;;;;;;;;8069695;29;20661;-90
2023/08/15 08:54:07;;;;;;;4.63;3.10;;;;;;;;;;8054038;29;20061;-89
2023/08/15 08:58:18;;;;;;;4.50;2.85;;;;;;;;;;8077120;29;20502;-90
2023/08/15 09:02:27;;;;;;;5.70;3.20;;;;;;;;;;8061028;29;20061;-88
2023/08/15 09:06:31;;;;;;;5.88;3.20;;;;;;;;;;8099842;23;20175;-90
2023/08/15 09:10:47;;;;;;;5.22;2.75;;;;;;;;;;8088800;29;20080;-88
2023/08/15 09:14:51;;;;;;;6.65;3.65;;;;;;;;;;8080712;29;20482;-90
2023/08/15 09:18:54;;;;;;;7.30;3.10;;;;;;;;;;8073683;29;20645;-90
2023/08/15 09:23:01;;;;;;;7.68;2.50;;;;;;;;;;8079820;29;20117;-90
2023/08/15 09:27:06;;;;;;;4.45;2.90;;;;;;;;;;8067339;29;20091;-90
2023/08/15 09:31:11;;;;;;;5.95;2.88;;;;;;;;;;8089571;29;20560;-90
2023/08/15 09:35:15;;;;;;;4.25;2.80;;;;;;;;;;8083507;29;20568;-91
2023/08/15 09:39:18;;;;;;;3.65;2.90;;;;;;;;;;8095666;29;20091;-90
2023/08/15 09:43:21;;;;;;;7.07;3.03;;;;;;;;;;8090296;29;20059;-90
2023/08/15 09:47:26;;;;;;;4.85;3.20;;;;;;;;;;8081137;29;20057;-90
2023/08/15 09:51:30;;;;;;;4.80;3.20;;;;;;;;;;8086294;29;20084;-89
2023/08/15 09:55:36;;;;;;;6.00;2.97;;;;;;;;;;8084264;29;20063;-90
2023/08/15 09:59:39;;;;;;;6.68;3.50;;;;;;;;;;8086431;29;20056;-89
2023/08/15 10:03:44;;;;;;;6.60;3.60;;;;;;;;;;8074382;29;20501;-89
2023/08/15 10:07:47;;;;;;;4.82;3.45;;;;;;;;;;8089719;29;20091;-89
2023/08/15 10:11:50;;;;;;;4.68;3.50;;;;;;;;;;8086864;29;20061;-89
2023/08/15 10:15:54;;;;;;;4.95;3.20;;;;;;;;;;8079403;29;20072;-89
2023/08/15 10:20:05;;;;;;;4.80;3.13;;;;;;;;;;8086080;29;20080;-89
2023/08/15 10:24:10;;;;;;;4.82;3.45;;;;;;;;;;8084107;29;20143;-91
2023/08/15 10:28:13;;;;;;;5.57;3.33;;;;;;;;;;8087592;29;20144;-90
2023/08/15 10:32:25;;;;;;;10.32;3.08;;;;;;;;;;8080063;29;20742;-89
2023/08/15 10:36:30;;;;;;;5.57;3.50;;;;;;;;;;8076138;29;20571;-89
2023/08/15 10:40:39;;;;;;;4.95;3.17;;;;;;;;;;8064590;29;20454;-89
2023/08/15 10:44:59;;;;;;;5.57;3.60;;;;;;;;;;8090686;29;20547;-89
2023/08/15 10:49:11;;;;;;;6.63;3.53;;;;;;;;;;8080610;29;20060;-88
2023/08/15 10:53:16;;;;;;;8.45;3.20;;;;;;;;;;8083559;29;20088;-90
2023/08/15 10:57:21;;;;;;;4.88;3.20;;;;;;;;;;8074000;29;20060;-89
2023/08/15 11:01:26;;;;;;;7.30;3.20;;;;;;;;;;8081052;29;20380;-89
2023/08/15 11:05:29;;;;;;;6.80;3.28;;;;;;;;;;8065217;29;20065;-88
2023/08/15 11:09:33;;;;;;;6.68;3.42;;;;;;;;;;8087417;29;20068;-89
2023/08/15 11:13:41;;;;;;;5.85;3.40;;;;;;;;;;8083028;29;20045;-91
2023/08/15 11:17:46;;;;;;;6.82;3.60;;;;;;;;;;8063405;29;20068;-90
2023/08/15 11:21:59;;;;;;;6.97;3.28;;;;;;;;;;8059745;29;20064;-91
2023/08/15 11:26:48;;;;;;;4.70;2.88;;;;;;;;;;8082313;29;20497;-90
2023/08/15 11:30:52;;;;;;;5.53;2.60;;;;;;;;;;8066910;29;20049;-90
2023/08/15 11:34:55;;;;;;;4.88;2.40;;;;;;;;;;8082527;29;20137;-89
2023/08/15 11:39:01;;;;;;;14.10;2.80;;;;;;;;;;8073583;29;20065;-90
2023/08/15 11:43:07;;;;;;;5.10;3.20;;;;;;;;;;8091446;29;20061;-90
2023/08/15 11:47:14;;;;;;;8.25;2.65;;;;;;;;;;8079311;29;20168;-89
2023/08/15 11:51:21;;;;;;;4.18;2.60;;;;;;;;;;8076948;29;20083;-89
2023/08/15 11:55:25;;;;;;;5.53;2.95;;;;;;;;;;8081734;29;20140;-90
2023/08/15 11:59:32;;;;;;;5.40;2.65;;;;;;;;;;8090396;29;20084;-90
2023/08/15 12:03:37;;;;;;;5.75;3.13;;;;;;;;;;8079995;29;20060;-89
2023/08/15 12:07:43;;;;;;;6.05;3.33;;;;;;;;;;8081371;29;20064;-89
2023/08/15 12:11:46;;;;;;;6.15;3.38;;;;;;;;;;8093815;29;20111;-89
2023/08/15 12:15:56;;;;;;;5.43;3.28;;;;;;;;;;8072198;29;20151;-89
2023/08/15 12:19:59;;;;;;;4.75;3.47;;;;;;;;;;8072908;29;20135;-89
2023/08/15 12:24:02;;;;;;;5.78;3.75;;;;;;;;;;8074212;29;20075;-89
2023/08/15 12:28:07;;;;;;;6.70;3.55;;;;;;;;;;8073670;29;20108;-90
2023/08/15 12:32:14;;;;;;;5.93;3.13;;;;;;;;;;8086107;29;20065;-89
2023/08/15 12:36:17;;;;;;;4.63;3.38;;;;;;;;;;8077820;29;20501;-89
2023/08/15 12:40:20;;;;;;;5.78;3.30;;;;;;;;;;8078815;29;20084;-89
2023/08/15 12:44:23;;;;;;;6.90;3.10;;;;;;;;;;8077164;29;20521;-89
2023/08/15 12:48:27;;;;;;;5.03;3.28;;;;;;;;;;8072618;29;20053;-89
2023/08/15 12:52:31;;;;;;;5.25;3.10;;;;;;;;;;8082138;29;20060;-88
2023/08/15 12:56:34;;;;;;;5.72;3.13;;;;;;;;;;8060456;29;20061;-90
2023/08/15 13:00:39;;;;;;;6.05;3.15;;;;;;;;;;8081008;29;20061;-90
2023/08/15 13:04:44;;;;;;;7.13;2.80;;;;;;;;;;8091606;29;20064;-90
2023/08/15 13:08:47;;;;;;;5.65;3.20;;;;;;;;;;8085919;29;20457;-90
2023/08/15 13:12:50;;;;;;;4.50;2.78;;;;;;;;;;8102551;29;20056;-90
2023/08/15 13:16:53;;;;;;;4.13;3.00;;;;;;;;;;8084346;29;20557;-90
2023/08/15 13:20:58;;;;;;;4.72;3.10;;;;;;;;;;8084491;29;20148;-90
2023/08/15 13:25:01;;;;;;;4.50;2.60;;;;;;;;;;8098277;29;20068;-89
2023/08/15 13:29:04;;;;;;;5.05;3.13;;;;;;;;;;8085945;29;20057;-90
2023/08/15 13:33:10;;;;;;;5.43;3.03;;;;;;;;;;8093941;29;20134;-90
2023/08/15 13:37:41;;;;;;;3.78;2.90;;;;;;;;;;8070902;29;20497;-90
2023/08/15 13:42:21;;;;;;;5.65;2.83;;;;;;;;;;8087808;29;20057;-90
2023/08/15 13:50:57;;;;;;;4.13;2.90;;;;;;;;;;8085115;29;20057;-89
2023/08/15 13:55:04;;;;;;;4.32;2.80;;;;;;;;;;8077547;29;20059;-90
2023/08/15 13:59:08;;;;;;;5.60;3.13;;;;;;;;;;8067183;29;20065;-90
2023/08/15 14:03:14;;;;;;;7.00;3.00;;;;;;;;;;8075658;29;20064;-90
2023/08/15 14:07:18;;;;;;;7.28;3.10;;;;;;;;;;8077332;29;20064;-90
2023/08/15 14:11:23;;;;;;;7.53;3.00;;;;;;;;;;8082016;29;20395;-90
2023/08/15 14:15:27;;;;;;;6.90;3.20;;;;;;;;;;8086207;29;20637;-88
2023/08/15 14:19:30;;;;;;;6.90;2.90;;;;;;;;;;8082248;29;20094;-90
2023/08/15 14:23:34;;;;;;;6.93;2.92;;;;;;;;;;8077205;29;20478;-88
2023/08/15 14:27:39;;;;;;;6.15;3.35;;;;;;;;;;8073707;29;20105;-90
2023/08/15 14:32:01;;;;;;;5.30;3.00;;;;;;;;;;8096383;29;20143;-88
2023/08/15 14:36:06;;;;;;;5.97;2.72;;;;;;;;;;8092758;29;20115;-90
2023/08/15 14:40:10;;;;;;;5.25;2.83;;;;;;;;;;8093799;29;20052;-90
2023/08/15 14:44:19;;;;;;;4.82;3.20;;;;;;;;;;8087156;29;20085;-90
2023/08/15 14:48:22;;;;;;;5.28;3.05;;;;;;;;;;8093388;29;20139;-89
2023/08/15 14:52:46;;;;;;;5.45;3.08;;;;;;;;;;8095918;29;20113;-89
2023/08/15 14:56:50;;;;;;;4.70;3.17;;;;;;;;;;8094094;29;20069;-89
2023/08/15 15:00:57;;;;;;;5.22;2.78;;;;;;;;;;8093453;29;20103;-89
2023/08/15 15:05:00;;;;;;;5.80;3.08;;;;;;;;;;8090057;29;20489;-88
2023/08/15 15:09:03;;;;;;;8.05;2.97;;;;;;;;;;8090851;29;20063;-89
2023/08/15 15:13:06;;;;;;;6.13;2.90;;;;;;;;;;8078559;29;20061;-89
2023/08/15 15:17:10;;;;;;;4.22;3.10;;;;;;;;;;8078859;29;20090;-89
2023/08/15 15:21:13;;;;;;;5.50;3.17;;;;;;;;;;8077060;29;20241;-88
2023/08/15 15:25:16;;;;;;;9.82;3.50;;;;;;;;;;8101154;29;20056;-88
2023/08/15 15:29:19;;;;;;;5.45;3.30;;;;;;;;;;8090908;29;20065;-88
2023/08/15 15:33:25;;;;;;;5.93;3.30;;;;;;;;;;8082610;29;20517;-89
2023/08/15 15:37:28;;;;;;;7.32;3.60;;;;;;;;;;8082178;29;20466;-88
2023/08/15 15:41:31;;;;;;;6.32;3.47;;;;;;;;;;8075845;29;20071;-88
2023/08/15 15:45:36;;;;;;;5.22;3.20;;;;;;;;;;8080613;29;20053;-89
2023/08/15 15:49:40;;;;;;;5.93;3.70;;;;;;;;;;8081420;29;20063;-88
2023/08/15 15:53:42;;;;;;;6.22;3.90;;;;;;;;;;8073784;29;20064;-89
2023/08/15 15:57:45;;;;;;;7.95;3.72;;;;;;;;;;8087765;29;20432;-89
2023/08/15 16:01:48;;;;;;;10.05;3.58;;;;;;;;;;8078145;29;20474;-89
2023/08/15 16:05:53;;;;;;;4.32;3.20;;;;;;;;;;8080516;29;20064;-89
2023/08/15 16:09:56;;;;;;;6.75;3.58;;;;;;;;;;8082351;29;20164;-89
2023/08/15 16:13:59;;;;;;;7.38;3.40;;;;;;;;;;8089324;29;20494;-89
2023/08/15 16:18:02;;;;;;;7.28;3.92;;;;;;;;;;8082965;29;20064;-89
2023/08/15 16:22:07;;;;;;;9.05;3.75;;;;;;;;;;8081023;29;20056;-89
2023/08/15 16:26:10;;;;;;;6.88;3.40;;;;;;;;;;8087970;29;20147;-88
2023/08/15 16:30:14;;;;;;;5.10;3.40;;;;;;;;;;8076505;29;20449;-89
2023/08/15 16:34:17;;;;;;;5.65;3.78;;;;;;;;;;8095045;29;20057;-88
2023/08/15 16:38:25;;;;;;;6.78;3.72;;;;;;;;;;8093134;29;20064;-89
2023/08/15 16:42:28;;;;;;;6.00;3.65;;;;;;;;;;8073727;29;20069;-89
2023/08/15 16:46:31;;;;;;;5.82;3.83;;;;;;;;;;8084371;29;20064;-88
2023/08/15 16:50:36;;;;;;;10.00;4.25;;;;;;;;;;8083902;29;20080;-89
2023/08/15 16:54:40;;;;;;;6.70;3.75;;;;;;;;;;8076767;29;20084;-89
2023/08/15 16:58:47;;;;;;;8.95;3.88;;;;;;;;;;8082687;29;20144;-89
2023/08/15 17:02:52;;;;;;;6.38;3.67;;;;;;;;;;8075511;29;20057;-89
2023/08/15 17:06:56;;;;;;;11.23;3.85;;;;;;;;;;8081292;29;20053;-89
2023/08/15 17:11:02;;;;;;;9.38;4.20;;;;;;;;;;8070781;29;20147;-89
2023/08/15 17:15:07;;;;;;;6.32;4.25;;;;;;;;;;8077374;29;20137;-89
2023/08/15 17:24:08;;;;;;;7.97;5.15;;;;;;;;;;8061859;29;20076;-89
2023/08/15 17:28:16;;;;;;;6.88;4.90;;;;;;;;;;8059841;29;20057;-89
2023/08/15 17:32:19;;;;;;;9.50;4.80;;;;;;;;;;8086135;29;20063;-90
2023/08/15 17:36:26;;;;;;;12.27;5.25;;;;;;;;;;8074261;29;20433;-88
2023/08/15 17:40:30;;;;;;;7.32;5.40;;;;;;;;;;8041806;29;20408;-89
2023/08/15 17:44:35;;;;;;;10.60;5.35;;;;;;;;;;8096609;29;20602;-89
2023/08/15 17:48:40;;;;;;;11.50;5.90;;;;;;;;;;8077063;29;20451;-88
2023/08/15 17:52:46;;;;;;;14.45;6.43;;;;;;;;;;8081715;29;20104;-87
2023/08/15 17:56:51;;;;;;;17.30;9.20;;;;;;;;;;8064249;29;20052;-86
2023/08/15 18:00:58;;;;;;;12.23;6.18;;;;;;;;;;8091053;29;20217;-88
2023/08/15 18:05:03;;;;;;;8.30;5.90;;;;;;;;;;8074973;29;20105;-91
2023/08/15 18:09:15;;;;;;;;;;;;;;;;;;8075028;29;20111;-89
2023/08/15 18:13:24;;;;;;;11.65;6.78;;;;;;;;;;8086118;29;19934;-89
2023/08/15 18:17:30;;;;;;;18.42;6.68;;;;;;;;;;8086648;29;20057;-89
2023/08/15 18:21:33;;;;;;;9.82;6.85;;;;;;;;;;8083705;29;20057;-88
2023/08/15 18:25:38;;;;;;;7.70;6.45;;;;;;;;;;8082654;29;20176;-88
2023/08/15 18:29:43;;;;;;;13.90;6.63;;;;;;;;;;8087507;29;20079;-88
2023/08/15 18:33:50;;;;;;;12.93;6.75;;;;;;;;;;8081189;29;20135;-88
2023/08/15 18:37:54;;;;;;;13.88;9.15;;;;;;;;;;8083428;29;20163;-88
2023/08/15 18:42:00;;;;;;;17.58;11.20;;;;;;;;;;8085521;29;20056;-89
2023/08/15 18:46:13;;;;;;;18.98;11.02;;;;;;;;;;8078027;29;20144;-87
2023/08/15 18:50:27;;;;;;;17.90;10.85;;;;;;;;;;8071206;29;20362;-89
2023/08/15 18:54:34;;;;;;;11.00;7.80;;;;;;;;;;8064235;29;20057;-90
2023/08/15 18:58:40;;;;;;;11.98;7.70;;;;;;;;;;8076483;29;20056;-89
2023/08/15 19:02:45;;;;;;;17.45;7.97;;;;;;;;;;8075612;29;20063;-89
2023/08/15 19:06:52;;;;;;;12.40;8.18;;;;;;;;;;8074902;29;20053;-88
2023/08/15 19:10:57;;;;;;;13.52;8.40;;;;;;;;;;8079134;29;20113;-89
2023/08/15 19:15:03;;;;;;;10.52;8.13;;;;;;;;;;8077497;29;20119;-89
2023/08/15 19:19:09;;;;;;;12.45;8.80;;;;;;;;;;8075001;29;20156;-89
2023/08/15 19:23:15;;;;;;;13.98;8.55;;;;;;;;;;8072842;29;20481;-89
2023/08/15 19:27:20;;;;;;;12.63;8.13;;;;;;;;;;8076442;29;20188;-89
2023/08/15 19:31:25;;;;;;;11.55;8.70;;;;;;;;;;8083362;29;20426;-89
2023/08/15 19:35:31;;;;;;;16.08;8.52;;;;;;;;;;8092808;29;20060;-88
2023/08/15 19:39:36;;;;;;;12.52;8.82;;;;;;;;;;8076646;29;20057;-88
2023/08/15 19:43:40;;;;;;;11.85;8.25;;;;;;;;;;8072222;29;20060;-88
2023/08/15 19:47:45;;;;;;;13.32;8.95;;;;;;;;;;8084394;29;20060;-89
2023/08/15 19:51:50;;;;;;;14.25;9.68;;;;;;;;;;8082680;29;20136;-88
2023/08/15 19:55:56;;;;;;;13.05;9.18;;;;;;;;;;8075552;29;20049;-89
2023/08/15 20:00:00;;;;;;;12.82;9.18;;;;;;;;;;8073710;29;20084;-89
2023/08/15 20:04:05;;;;;;;11.95;9.50;;;;;;;;;;8086426;29;20061;-89
2023/08/15 20:08:09;;;;;;;12.30;8.80;;;;;;;;;;8077431;29;20072;-87
2023/08/15 20:12:17;;;;;;;12.32;9.15;;;;;;;;;;8075852;29;20068;-89
2023/08/15 20:16:21;;;;;;;17.05;9.55;;;;;;;;;;8078910;29;20053;-89
2023/08/15 20:20:27;;;;;;;12.93;9.73;;;;;;;;;;8073863;29;20151;-87
2023/08/15 20:24:34;;;;;;;14.48;9.65;;;;;;;;;;8064683;29;20517;-90
2023/08/15 20:28:40;;;;;;;11.93;9.20;;;;;;;;;;8077760;29;20057;-90
2023/08/15 20:32:43;;;;;;;12.90;9.77;;;;;;;;;;8073812;29;20139;-88
2023/08/15 20:36:47;;;;;;;13.02;9.32;;;;;;;;;;8070352;29;20061;-87
2023/08/15 20:40:51;;;;;;;14.77;9.52;;;;;;;;;;8077346;29;20064;-88
2023/08/15 20:44:56;;;;;;;11.10;9.40;;;;;;;;;;8074106;29;20053;-89
2023/08/15 20:48:59;;;;;;;12.50;8.80;;;;;;;;;;8079236;29;20502;-89
2023/08/15 20:53:01;;;;;;;12.07;8.52;;;;;;;;;;8062980;29;20065;-89
2023/08/15 20:57:05;;;;;;;11.35;9.32;;;;;;;;;;8086901;29;20144;-90
2023/08/15 21:01:09;;;;;;;12.98;9.18;;;;;;;;;;8077550;29;20065;-89
2023/08/15 21:05:14;;;;;;;10.85;9.05;;;;;;;;;;8077849;29;20164;-89
2023/08/15 21:09:17;;;;;;;16.15;8.65;;;;;;;;;;8086120;29;20067;-88
2023/08/15 21:13:20;;;;;;;12.65;9.43;;;;;;;;;;8084993;29;20048;-89
2023/08/15 21:17:24;;;;;;;12.15;8.93;;;;;;;;;;8084908;29;20135;-87
2023/08/15 21:21:27;;;;;;;14.70;9.55;;;;;;;;;;8108862;29;20120;-88
2023/08/15 21:25:30;;;;;;;11.98;8.40;;;;;;;;;;8110692;29;20147;-88
2023/08/15 21:29:33;;;;;;;11.05;8.57;;;;;;;;;;8107099;29;20497;-88
2023/08/15 21:33:38;;;;;;;12.70;8.68;;;;;;;;;;8102203;29;20560;-88
2023/08/15 21:37:41;;;;;;;10.63;8.52;;;;;;;;;;8110533;29;20497;-88
2023/08/15 21:41:44;;;;;;;10.57;8.63;;;;;;;;;;8110644;29;20131;-87
2023/08/15 21:45:47;;;;;;;10.75;8.60;;;;;;;;;;8109994;29;20693;-87
2023/08/15 21:49:51;;;;;;;12.23;8.10;;;;;;;;;;8110333;29;20486;-87
2023/08/15 21:53:54;;;;;;;16.35;10.02;;;;;;;;;;8110165;29;20055;-88
2023/08/15 21:57:57;;;;;;;13.65;8.50;;;;;;;;;;8109944;29;20502;-87
2023/08/15 22:02:00;;;;;;;11.32;8.80;;;;;;;;;;8102635;29;20048;-88
2023/08/15 22:06:05;;;;;;;13.27;8.32;;;;;;;;;;8099451;29;20056;-88
2023/08/15 22:10:09;;;;;;;12.32;8.95;;;;;;;;;;8102383;29;20064;-88
2023/08/15 22:14:13;;;;;;;13.20;8.75;;;;;;;;;;8109392;29;20498;-88
2023/08/15 22:18:15;;;;;;;12.70;8.40;;;;;;;;;;8088375;29;20044;-88
2023/08/15 22:22:20;;;;;;;11.50;9.18;;;;;;;;;;8109047;29;20561;-87
2023/08/15 22:26:23;;;;;;;12.73;8.82;;;;;;;;;;8109140;29;20104;-88
2023/08/15 22:30:26;;;;;;;13.27;8.75;;;;;;;;;;8107802;29;20053;-88
2023/08/15 22:34:29;;;;;;;14.00;8.77;;;;;;;;;;8108993;29;20068;-88
2023/08/15 22:38:33;;;;;;;10.40;8.35;;;;;;;;;;8108678;29;20053;-89
2023/08/15 22:42:36;;;;;;;10.38;7.70;;;;;;;;;;8108896;29;20068;-88
2023/08/15 22:46:39;;;;;;;12.85;8.65;;;;;;;;;;8108612;29;20128;-89
2023/08/15 22:50:42;;;;;;;13.77;8.80;;;;;;;;;;8108691;29;20061;-88
2023/08/15 22:54:47;;;;;;;13.93;8.63;;;;;;;;;;8108301;29;20064;-88
2023/08/15 22:58:50;;;;;;;11.00;8.63;;;;;;;;;;8108108;29;20056;-88
2023/08/15 23:02:53;;;;;;;11.50;7.60;;;;;;;;;;8108121;29;20135;-88
2023/08/15 23:06:56;;;;;;;11.85;7.97;;;;;;;;;;8108059;29;20060;-88
2023/08/15 23:11:00;;;;;;;13.02;8.27;;;;;;;;;;8107804;29;20183;-88
2023/08/15 23:15:03;;;;;;;15.63;8.55;;;;;;;;;;8107771;29;20066;-88
2023/08/15 23:19:06;;;;;;;10.75;7.82;;;;;;;;;;8107483;29;20131;-88
2023/08/15 23:23:09;;;;;;;12.00;7.68;;;;;;;;;;8087592;29;20104;-88
2023/08/15 23:27:13;;;;;;;11.60;7.82;;;;;;;;;;8108570;29;20090;-88
2023/08/15 23:31:17;;;;;;;11.60;7.53;;;;;;;;;;8107936;29;20064;-88
2023/08/15 23:35:19;;;;;;;10.98;8.35;;;;;;;;;;8082896;29;20056;-88
2023/08/15 23:39:24;;;;;;;13.20;7.70;;;;;;;;;;8106945;29;20422;-89
2023/08/15 23:43:29;;;;;;;10.40;7.50;;;;;;;;;;8097013;29;20151;-89
2023/08/15 23:47:32;;;;;;;11.15;7.57;;;;;;;;;;8099422;29;20131;-88
2023/08/15 23:51:35;;;;;;;12.30;7.35;;;;;;;;;;8094771;29;20565;-88
2023/08/15 23:55:38;;;;;;;8.52;7.20;;;;;;;;;;8106527;29;20060;-88
2023/08/15 23:59:42;;;;;;;10.45;8.05;;;;;;;;;;8094269;29;20173;-88
